sensor_id;sensor_type;location;lat;lon;timestamp;P1;durP1;ratioP1;P2;durP2;ratioP2
42978;SDS011;28616;44.746;19.678;2023-07-29T00:01:11;7.47;;;4.00;;
42978;SDS011;28616;44.746;19.678;2023-07-29T00:03:37;11.63;;;4.55;;
42978;SDS011;28616;44.746;19.678;2023-07-29T00:06:03;10.88;;;4.22;;
42978;SDS011;28616;44.746;19.678;2023-07-29T00:08:29;9.45;;;4.20;;
42978;SDS011;28616;44.746;19.678;2023-07-29T00:10:55;9.93;;;5.43;;
42978;SDS011;28616;44.746;19.678;2023-07-29T00:13:20;13.50;;;4.18;;
42978;SDS011;28616;44.746;19.678;2023-07-29T00:15:46;9.57;;;4.28;;
42978;SDS011;28616;44.746;19.678;2023-07-29T00:18:12;5.88;;;4.10;;
42978;SDS011;28616;44.746;19.678;2023-07-29T00:20:38;7.45;;;4.22;;
42978;SDS011;28616;44.746;19.678;2023-07-29T00:23:04;8.80;;;3.90;;
42978;SDS011;28616;44.746;19.678;2023-07-29T00:25:29;21.85;;;4.43;;
42978;SDS011;28616;44.746;19.678;2023-07-29T00:27:55;11.45;;;3.72;;
42978;SDS011;28616;44.746;19.678;2023-07-29T00:30:21;8.13;;;4.43;;
42978;SDS011;28616;44.746;19.678;2023-07-29T00:32:47;8.05;;;4.15;;
42978;SDS011;28616;44.746;19.678;2023-07-29T00:35:13;9.70;;;4.03;;
42978;SDS011;28616;44.746;19.678;2023-07-29T00:37:39;6.78;;;4.10;;
42978;SDS011;28616;44.746;19.678;2023-07-29T00:40:09;13.10;;;4.53;;
42978;SDS011;28616;44.746;19.678;2023-07-29T00:42:41;6.25;;;3.65;;
42978;SDS011;28616;44.746;19.678;2023-07-29T00:45:08;10.52;;;4.15;;
42978;SDS011;28616;44.746;19.678;2023-07-29T00:47:34;8.45;;;4.15;;
42978;SDS011;28616;44.746;19.678;2023-07-29T00:50:00;8.68;;;3.95;;
42978;SDS011;28616;44.746;19.678;2023-07-29T00:52:26;9.43;;;4.22;;
42978;SDS011;28616;44.746;19.678;2023-07-29T00:54:52;16.15;;;4.63;;
42978;SDS011;28616;44.746;19.678;2023-07-29T00:57:18;13.32;;;4.32;;
42978;SDS011;28616;44.746;19.678;2023-07-29T00:59:45;10.30;;;3.85;;
42978;SDS011;28616;44.746;19.678;2023-07-29T01:02:11;7.85;;;3.72;;
42978;SDS011;28616;44.746;19.678;2023-07-29T01:04:37;10.85;;;3.75;;
42978;SDS011;28616;44.746;19.678;2023-07-29T01:12:50;9.85;;;4.55;;
42978;SDS011;28616;44.746;19.678;2023-07-29T01:17:56;6.60;;;4.28;;
42978;SDS011;28616;44.746;19.678;2023-07-29T01:20:37;8.80;;;4.63;;
42978;SDS011;28616;44.746;19.678;2023-07-29T01:23:05;9.18;;;4.65;;
42978;SDS011;28616;44.746;19.678;2023-07-29T01:25:31;9.43;;;4.07;;
42978;SDS011;28616;44.746;19.678;2023-07-29T01:27:57;8.68;;;4.57;;
42978;SDS011;28616;44.746;19.678;2023-07-29T01:30:25;6.82;;;3.55;;
42978;SDS011;28616;44.746;19.678;2023-07-29T01:38:18;10.57;;;4.45;;
42978;SDS011;28616;44.746;19.678;2023-07-29T01:40:49;9.20;;;4.03;;
42978;SDS011;28616;44.746;19.678;2023-07-29T01:43:17;13.95;;;4.82;;
42978;SDS011;28616;44.746;19.678;2023-07-29T01:45:48;16.67;;;4.68;;
42978;SDS011;28616;44.746;19.678;2023-07-29T01:48:14;15.68;;;4.63;;
42978;SDS011;28616;44.746;19.678;2023-07-29T01:50:40;14.00;;;4.22;;
42978;SDS011;28616;44.746;19.678;2023-07-29T01:53:06;10.20;;;4.20;;
42978;SDS011;28616;44.746;19.678;2023-07-29T01:55:32;11.07;;;4.60;;
42978;SDS011;28616;44.746;19.678;2023-07-29T01:57:58;23.33;;;5.50;;
42978;SDS011;28616;44.746;19.678;2023-07-29T02:00:24;12.90;;;5.15;;
42978;SDS011;28616;44.746;19.678;2023-07-29T02:02:50;15.05;;;4.93;;
42978;SDS011;28616;44.746;19.678;2023-07-29T02:05:15;15.63;;;5.35;;
42978;SDS011;28616;44.746;19.678;2023-07-29T02:07:41;12.85;;;4.80;;
42978;SDS011;28616;44.746;19.678;2023-07-29T02:10:07;11.50;;;4.75;;
42978;SDS011;28616;44.746;19.678;2023-07-29T02:12:33;11.25;;;5.35;;
42978;SDS011;28616;44.746;19.678;2023-07-29T02:14:59;22.27;;;5.68;;
42978;SDS011;28616;44.746;19.678;2023-07-29T02:17:25;18.92;;;6.18;;
42978;SDS011;28616;44.746;19.678;2023-07-29T02:19:51;21.98;;;5.88;;
42978;SDS011;28616;44.746;19.678;2023-07-29T02:22:17;15.27;;;5.63;;
42978;SDS011;28616;44.746;19.678;2023-07-29T02:24:44;18.75;;;5.10;;
42978;SDS011;28616;44.746;19.678;2023-07-29T02:27:10;22.40;;;6.43;;
42978;SDS011;28616;44.746;19.678;2023-07-29T02:29:36;18.35;;;5.13;;
42978;SDS011;28616;44.746;19.678;2023-07-29T02:32:02;14.95;;;5.00;;
42978;SDS011;28616;44.746;19.678;2023-07-29T02:34:28;13.90;;;5.22;;
42978;SDS011;28616;44.746;19.678;2023-07-29T02:36:54;26.00;;;5.43;;
42978;SDS011;28616;44.746;19.678;2023-07-29T02:39:20;19.08;;;5.40;;
42978;SDS011;28616;44.746;19.678;2023-07-29T02:41:46;18.83;;;5.35;;
42978;SDS011;28616;44.746;19.678;2023-07-29T02:44:12;16.42;;;5.93;;
42978;SDS011;28616;44.746;19.678;2023-07-29T02:46:38;18.17;;;5.20;;
42978;SDS011;28616;44.746;19.678;2023-07-29T02:49:04;26.08;;;6.00;;
42978;SDS011;28616;44.746;19.678;2023-07-29T02:51:30;13.13;;;5.22;;
42978;SDS011;28616;44.746;19.678;2023-07-29T02:53:56;11.98;;;4.95;;
42978;SDS011;28616;44.746;19.678;2023-07-29T02:56:22;15.07;;;5.22;;
42978;SDS011;28616;44.746;19.678;2023-07-29T02:58:47;10.20;;;4.32;;
42978;SDS011;28616;44.746;19.678;2023-07-29T03:01:13;21.08;;;5.63;;
42978;SDS011;28616;44.746;19.678;2023-07-29T03:03:39;12.35;;;4.93;;
42978;SDS011;28616;44.746;19.678;2023-07-29T03:06:06;13.60;;;4.68;;
42978;SDS011;28616;44.746;19.678;2023-07-29T03:08:33;17.42;;;5.22;;
42978;SDS011;28616;44.746;19.678;2023-07-29T03:11:04;10.15;;;5.10;;
42978;SDS011;28616;44.746;19.678;2023-07-29T03:13:32;16.30;;;5.13;;
42978;SDS011;28616;44.746;19.678;2023-07-29T03:16:08;13.70;;;4.78;;
42978;SDS011;28616;44.746;19.678;2023-07-29T03:18:35;12.25;;;5.28;;
42978;SDS011;28616;44.746;19.678;2023-07-29T03:21:02;11.40;;;4.97;;
42978;SDS011;28616;44.746;19.678;2023-07-29T03:23:28;14.55;;;6.05;;
42978;SDS011;28616;44.746;19.678;2023-07-29T03:25:55;17.00;;;5.20;;
42978;SDS011;28616;44.746;19.678;2023-07-29T03:28:24;13.05;;;4.97;;
42978;SDS011;28616;44.746;19.678;2023-07-29T03:30:53;20.42;;;5.53;;
42978;SDS011;28616;44.746;19.678;2023-07-29T03:33:19;12.82;;;4.90;;
42978;SDS011;28616;44.746;19.678;2023-07-29T03:35:45;16.15;;;5.53;;
42978;SDS011;28616;44.746;19.678;2023-07-29T03:38:11;11.93;;;4.95;;
42978;SDS011;28616;44.746;19.678;2023-07-29T03:40:37;9.60;;;4.97;;
42978;SDS011;28616;44.746;19.678;2023-07-29T03:43:04;9.95;;;5.57;;
42978;SDS011;28616;44.746;19.678;2023-07-29T03:45:30;10.90;;;5.55;;
42978;SDS011;28616;44.746;19.678;2023-07-29T03:47:55;14.27;;;6.10;;
42978;SDS011;28616;44.746;19.678;2023-07-29T03:50:21;14.18;;;5.15;;
42978;SDS011;28616;44.746;19.678;2023-07-29T03:52:47;13.25;;;5.53;;
42978;SDS011;28616;44.746;19.678;2023-07-29T03:55:13;7.05;;;4.50;;
42978;SDS011;28616;44.746;19.678;2023-07-29T03:57:38;16.25;;;6.63;;
42978;SDS011;28616;44.746;19.678;2023-07-29T04:00:04;14.77;;;5.30;;
42978;SDS011;28616;44.746;19.678;2023-07-29T04:02:31;12.90;;;5.00;;
42978;SDS011;28616;44.746;19.678;2023-07-29T04:04:56;8.20;;;5.28;;
42978;SDS011;28616;44.746;19.678;2023-07-29T04:07:22;11.05;;;5.30;;
42978;SDS011;28616;44.746;19.678;2023-07-29T04:09:48;19.23;;;5.43;;
42978;SDS011;28616;44.746;19.678;2023-07-29T04:12:14;13.82;;;4.75;;
42978;SDS011;28616;44.746;19.678;2023-07-29T04:14:40;10.77;;;4.50;;
42978;SDS011;28616;44.746;19.678;2023-07-29T04:17:07;14.80;;;5.40;;
42978;SDS011;28616;44.746;19.678;2023-07-29T04:19:32;10.70;;;5.15;;
42978;SDS011;28616;44.746;19.678;2023-07-29T04:21:58;13.05;;;5.50;;
42978;SDS011;28616;44.746;19.678;2023-07-29T04:24:25;11.75;;;5.30;;
42978;SDS011;28616;44.746;19.678;2023-07-29T04:26:50;8.80;;;5.60;;
42978;SDS011;28616;44.746;19.678;2023-07-29T04:29:16;9.88;;;4.97;;
42978;SDS011;28616;44.746;19.678;2023-07-29T04:31:42;11.70;;;5.18;;
42978;SDS011;28616;44.746;19.678;2023-07-29T04:34:08;22.33;;;6.20;;
42978;SDS011;28616;44.746;19.678;2023-07-29T04:36:34;15.55;;;6.40;;
42978;SDS011;28616;44.746;19.678;2023-07-29T04:39:00;18.77;;;6.47;;
42978;SDS011;28616;44.746;19.678;2023-07-29T04:41:25;18.83;;;5.93;;
42978;SDS011;28616;44.746;19.678;2023-07-29T04:43:51;15.10;;;6.60;;
42978;SDS011;28616;44.746;19.678;2023-07-29T04:46:17;13.90;;;6.05;;
42978;SDS011;28616;44.746;19.678;2023-07-29T04:48:43;19.15;;;6.47;;
42978;SDS011;28616;44.746;19.678;2023-07-29T04:51:09;16.80;;;6.05;;
42978;SDS011;28616;44.746;19.678;2023-07-29T04:53:35;15.75;;;6.40;;
42978;SDS011;28616;44.746;19.678;2023-07-29T04:56:02;20.13;;;6.15;;
42978;SDS011;28616;44.746;19.678;2023-07-29T04:58:28;16.58;;;6.15;;
42978;SDS011;28616;44.746;19.678;2023-07-29T05:00:55;14.55;;;6.38;;
42978;SDS011;28616;44.746;19.678;2023-07-29T05:03:21;19.05;;;6.82;;
42978;SDS011;28616;44.746;19.678;2023-07-29T05:05:47;21.13;;;8.05;;
42978;SDS011;28616;44.746;19.678;2023-07-29T05:08:13;21.98;;;7.47;;
42978;SDS011;28616;44.746;19.678;2023-07-29T05:10:39;18.58;;;7.90;;
42978;SDS011;28616;44.746;19.678;2023-07-29T05:13:05;18.58;;;7.82;;
42978;SDS011;28616;44.746;19.678;2023-07-29T05:15:30;11.13;;;5.95;;
42978;SDS011;28616;44.746;19.678;2023-07-29T05:17:56;19.30;;;5.93;;
42978;SDS011;28616;44.746;19.678;2023-07-29T05:20:22;21.92;;;6.18;;
42978;SDS011;28616;44.746;19.678;2023-07-29T05:22:48;14.38;;;6.22;;
42978;SDS011;28616;44.746;19.678;2023-07-29T05:25:13;17.23;;;6.07;;
42978;SDS011;28616;44.746;19.678;2023-07-29T05:27:39;16.67;;;6.30;;
42978;SDS011;28616;44.746;19.678;2023-07-29T05:30:05;21.92;;;6.70;;
42978;SDS011;28616;44.746;19.678;2023-07-29T05:32:32;16.23;;;6.95;;
42978;SDS011;28616;44.746;19.678;2023-07-29T05:34:58;15.38;;;7.05;;
42978;SDS011;28616;44.746;19.678;2023-07-29T05:37:23;11.45;;;6.07;;
42978;SDS011;28616;44.746;19.678;2023-07-29T05:39:49;13.88;;;5.78;;
42978;SDS011;28616;44.746;19.678;2023-07-29T05:42:15;11.88;;;5.82;;
42978;SDS011;28616;44.746;19.678;2023-07-29T05:44:41;11.85;;;5.30;;
42978;SDS011;28616;44.746;19.678;2023-07-29T05:47:06;18.83;;;5.22;;
42978;SDS011;28616;44.746;19.678;2023-07-29T05:49:32;12.68;;;5.20;;
42978;SDS011;28616;44.746;19.678;2023-07-29T05:51:58;16.85;;;5.18;;
42978;SDS011;28616;44.746;19.678;2023-07-29T05:54:24;13.02;;;4.97;;
42978;SDS011;28616;44.746;19.678;2023-07-29T05:56:49;9.75;;;4.88;;
42978;SDS011;28616;44.746;19.678;2023-07-29T05:59:15;17.75;;;5.75;;
42978;SDS011;28616;44.746;19.678;2023-07-29T06:01:41;12.32;;;4.82;;
42978;SDS011;28616;44.746;19.678;2023-07-29T06:04:07;13.73;;;5.63;;
42978;SDS011;28616;44.746;19.678;2023-07-29T06:06:33;16.90;;;4.75;;
42978;SDS011;28616;44.746;19.678;2023-07-29T06:08:59;12.40;;;4.80;;
42978;SDS011;28616;44.746;19.678;2023-07-29T06:11:25;14.68;;;4.78;;
42978;SDS011;28616;44.746;19.678;2023-07-29T06:13:51;10.10;;;3.67;;
42978;SDS011;28616;44.746;19.678;2023-07-29T06:16:17;8.65;;;3.90;;
42978;SDS011;28616;44.746;19.678;2023-07-29T06:18:43;11.57;;;4.05;;
42978;SDS011;28616;44.746;19.678;2023-07-29T06:21:09;8.63;;;4.15;;
42978;SDS011;28616;44.746;19.678;2023-07-29T06:23:37;9.60;;;4.88;;
42978;SDS011;28616;44.746;19.678;2023-07-29T06:26:03;12.57;;;3.80;;
42978;SDS011;28616;44.746;19.678;2023-07-29T06:28:29;8.48;;;4.20;;
42978;SDS011;28616;44.746;19.678;2023-07-29T06:30:55;16.50;;;4.18;;
42978;SDS011;28616;44.746;19.678;2023-07-29T06:33:21;12.40;;;4.03;;
42978;SDS011;28616;44.746;19.678;2023-07-29T06:35:47;10.93;;;3.85;;
42978;SDS011;28616;44.746;19.678;2023-07-29T06:38:13;14.77;;;4.28;;
42978;SDS011;28616;44.746;19.678;2023-07-29T06:40:40;12.93;;;3.65;;
42978;SDS011;28616;44.746;19.678;2023-07-29T06:43:06;13.05;;;3.80;;
42978;SDS011;28616;44.746;19.678;2023-07-29T06:45:32;11.50;;;3.55;;
42978;SDS011;28616;44.746;19.678;2023-07-29T06:47:58;14.02;;;3.90;;
42978;SDS011;28616;44.746;19.678;2023-07-29T06:50:24;11.15;;;3.28;;
42978;SDS011;28616;44.746;19.678;2023-07-29T06:52:50;14.32;;;4.30;;
42978;SDS011;28616;44.746;19.678;2023-07-29T06:55:16;8.82;;;3.42;;
42978;SDS011;28616;44.746;19.678;2023-07-29T06:57:43;9.65;;;3.47;;
42978;SDS011;28616;44.746;19.678;2023-07-29T07:00:09;8.10;;;3.42;;
42978;SDS011;28616;44.746;19.678;2023-07-29T07:02:35;13.70;;;3.55;;
42978;SDS011;28616;44.746;19.678;2023-07-29T07:05:01;6.70;;;3.17;;
42978;SDS011;28616;44.746;19.678;2023-07-29T07:07:27;12.43;;;4.22;;
42978;SDS011;28616;44.746;19.678;2023-07-29T07:09:53;10.60;;;3.10;;
42978;SDS011;28616;44.746;19.678;2023-07-29T07:12:20;12.70;;;3.13;;
42978;SDS011;28616;44.746;19.678;2023-07-29T07:14:46;11.27;;;3.80;;
42978;SDS011;28616;44.746;19.678;2023-07-29T07:17:12;11.10;;;3.25;;
42978;SDS011;28616;44.746;19.678;2023-07-29T07:19:38;8.05;;;3.40;;
42978;SDS011;28616;44.746;19.678;2023-07-29T07:22:05;13.15;;;4.03;;
42978;SDS011;28616;44.746;19.678;2023-07-29T07:24:31;9.20;;;3.72;;
42978;SDS011;28616;44.746;19.678;2023-07-29T07:26:57;8.02;;;3.13;;
42978;SDS011;28616;44.746;19.678;2023-07-29T07:29:23;7.07;;;2.92;;
42978;SDS011;28616;44.746;19.678;2023-07-29T07:31:53;14.35;;;3.83;;
42978;SDS011;28616;44.746;19.678;2023-07-29T07:34:19;16.25;;;4.00;;
42978;SDS011;28616;44.746;19.678;2023-07-29T07:36:46;10.15;;;2.88;;
42978;SDS011;28616;44.746;19.678;2023-07-29T07:39:12;8.70;;;3.03;;
42978;SDS011;28616;44.746;19.678;2023-07-29T07:41:39;9.43;;;2.78;;
42978;SDS011;28616;44.746;19.678;2023-07-29T07:44:05;7.40;;;2.75;;
42978;SDS011;28616;44.746;19.678;2023-07-29T07:46:31;7.95;;;2.90;;
42978;SDS011;28616;44.746;19.678;2023-07-29T07:48:58;6.85;;;2.80;;
42978;SDS011;28616;44.746;19.678;2023-07-29T07:51:24;9.48;;;3.50;;
42978;SDS011;28616;44.746;19.678;2023-07-29T07:53:51;8.48;;;2.50;;
42978;SDS011;28616;44.746;19.678;2023-07-29T07:56:17;10.15;;;3.05;;
42978;SDS011;28616;44.746;19.678;2023-07-29T07:58:43;11.23;;;3.22;;
42978;SDS011;28616;44.746;19.678;2023-07-29T08:01:10;10.30;;;2.95;;
42978;SDS011;28616;44.746;19.678;2023-07-29T08:03:37;8.52;;;3.15;;
42978;SDS011;28616;44.746;19.678;2023-07-29T08:06:03;8.15;;;3.20;;
42978;SDS011;28616;44.746;19.678;2023-07-29T08:08:30;8.30;;;2.90;;
42978;SDS011;28616;44.746;19.678;2023-07-29T08:10:56;8.25;;;3.35;;
42978;SDS011;28616;44.746;19.678;2023-07-29T08:13:23;12.68;;;2.92;;
42978;SDS011;28616;44.746;19.678;2023-07-29T08:15:50;8.13;;;3.00;;
42978;SDS011;28616;44.746;19.678;2023-07-29T08:18:16;7.57;;;2.83;;
42978;SDS011;28616;44.746;19.678;2023-07-29T08:20:52;7.35;;;2.90;;
42978;SDS011;28616;44.746;19.678;2023-07-29T08:23:19;11.02;;;2.90;;
42978;SDS011;28616;44.746;19.678;2023-07-29T08:25:50;7.43;;;2.65;;
42978;SDS011;28616;44.746;19.678;2023-07-29T08:28:16;6.93;;;2.90;;
42978;SDS011;28616;44.746;19.678;2023-07-29T08:30:43;6.70;;;3.10;;
42978;SDS011;28616;44.746;19.678;2023-07-29T08:33:09;8.73;;;3.25;;
42978;SDS011;28616;44.746;19.678;2023-07-29T08:35:35;12.63;;;3.08;;
42978;SDS011;28616;44.746;19.678;2023-07-29T08:38:02;8.68;;;2.60;;
42978;SDS011;28616;44.746;19.678;2023-07-29T08:40:29;9.93;;;2.75;;
42978;SDS011;28616;44.746;19.678;2023-07-29T08:42:57;31.23;;;13.35;;
42978;SDS011;28616;44.746;19.678;2023-07-29T08:45:24;9.85;;;4.57;;
42978;SDS011;28616;44.746;19.678;2023-07-29T08:47:50;6.60;;;3.10;;
42978;SDS011;28616;44.746;19.678;2023-07-29T08:50:21;8.45;;;3.20;;
42978;SDS011;28616;44.746;19.678;2023-07-29T08:52:47;9.13;;;2.95;;
42978;SDS011;28616;44.746;19.678;2023-07-29T08:55:14;10.60;;;2.90;;
42978;SDS011;28616;44.746;19.678;2023-07-29T08:57:40;5.15;;;2.78;;
42978;SDS011;28616;44.746;19.678;2023-07-29T09:00:06;9.55;;;2.95;;
42978;SDS011;28616;44.746;19.678;2023-07-29T09:02:33;8.90;;;2.63;;
42978;SDS011;28616;44.746;19.678;2023-07-29T09:04:59;7.32;;;2.90;;
42978;SDS011;28616;44.746;19.678;2023-07-29T09:07:25;7.28;;;2.65;;
42978;SDS011;28616;44.746;19.678;2023-07-29T09:09:51;4.10;;;2.05;;
42978;SDS011;28616;44.746;19.678;2023-07-29T09:12:18;7.95;;;2.70;;
42978;SDS011;28616;44.746;19.678;2023-07-29T09:14:44;7.07;;;2.97;;
42978;SDS011;28616;44.746;19.678;2023-07-29T09:17:10;8.80;;;3.63;;
42978;SDS011;28616;44.746;19.678;2023-07-29T09:19:36;7.32;;;3.10;;
42978;SDS011;28616;44.746;19.678;2023-07-29T09:22:03;7.93;;;3.42;;
42978;SDS011;28616;44.746;19.678;2023-07-29T09:24:29;8.27;;;3.17;;
42978;SDS011;28616;44.746;19.678;2023-07-29T09:26:57;7.90;;;3.10;;
42978;SDS011;28616;44.746;19.678;2023-07-29T09:29:23;7.47;;;2.78;;
42978;SDS011;28616;44.746;19.678;2023-07-29T09:31:49;6.50;;;2.80;;
42978;SDS011;28616;44.746;19.678;2023-07-29T09:34:15;9.57;;;2.75;;
42978;SDS011;28616;44.746;19.678;2023-07-29T09:36:42;8.88;;;2.88;;
42978;SDS011;28616;44.746;19.678;2023-07-29T09:39:12;9.00;;;2.40;;
42978;SDS011;28616;44.746;19.678;2023-07-29T09:41:38;8.05;;;2.47;;
42978;SDS011;28616;44.746;19.678;2023-07-29T09:44:04;6.13;;;2.65;;
42978;SDS011;28616;44.746;19.678;2023-07-29T09:46:37;5.80;;;2.28;;
42978;SDS011;28616;44.746;19.678;2023-07-29T09:49:04;5.30;;;2.22;;
42978;SDS011;28616;44.746;19.678;2023-07-29T09:51:31;3.58;;;2.15;;
42978;SDS011;28616;44.746;19.678;2023-07-29T09:53:57;8.32;;;2.20;;
42978;SDS011;28616;44.746;19.678;2023-07-29T09:56:26;10.07;;;2.28;;
42978;SDS011;28616;44.746;19.678;2023-07-29T09:58:55;5.43;;;2.28;;
42978;SDS011;28616;44.746;19.678;2023-07-29T10:01:22;7.85;;;2.65;;
42978;SDS011;28616;44.746;19.678;2023-07-29T10:03:48;5.53;;;1.95;;
42978;SDS011;28616;44.746;19.678;2023-07-29T10:06:15;9.65;;;2.85;;
42978;SDS011;28616;44.746;19.678;2023-07-29T10:08:42;7.70;;;1.85;;
42978;SDS011;28616;44.746;19.678;2023-07-29T10:11:08;6.35;;;2.33;;
42978;SDS011;28616;44.746;19.678;2023-07-29T10:13:36;5.18;;;2.10;;
42978;SDS011;28616;44.746;19.678;2023-07-29T10:16:02;4.47;;;2.42;;
42978;SDS011;28616;44.746;19.678;2023-07-29T10:18:30;5.50;;;2.17;;
42978;SDS011;28616;44.746;19.678;2023-07-29T10:20:57;4.20;;;1.85;;
42978;SDS011;28616;44.746;19.678;2023-07-29T10:23:24;3.42;;;1.60;;
42978;SDS011;28616;44.746;19.678;2023-07-29T10:25:58;4.78;;;2.00;;
42978;SDS011;28616;44.746;19.678;2023-07-29T10:28:29;3.70;;;2.05;;
42978;SDS011;28616;44.746;19.678;2023-07-29T10:30:56;5.22;;;2.10;;
42978;SDS011;28616;44.746;19.678;2023-07-29T10:33:22;3.63;;;2.00;;
42978;SDS011;28616;44.746;19.678;2023-07-29T10:35:48;7.30;;;1.77;;
42978;SDS011;28616;44.746;19.678;2023-07-29T10:38:15;5.00;;;2.40;;
42978;SDS011;28616;44.746;19.678;2023-07-29T10:40:55;16.42;;;10.20;;
42978;SDS011;28616;44.746;19.678;2023-07-29T10:43:26;3.17;;;1.83;;
42978;SDS011;28616;44.746;19.678;2023-07-29T10:45:53;18.27;;;10.80;;
42978;SDS011;28616;44.746;19.678;2023-07-29T10:53:43;5.53;;;2.70;;
42978;SDS011;28616;44.746;19.678;2023-07-29T10:56:09;3.58;;;2.22;;
42978;SDS011;28616;44.746;19.678;2023-07-29T10:58:35;4.53;;;2.15;;
42978;SDS011;28616;44.746;19.678;2023-07-29T11:01:01;3.33;;;1.83;;
42978;SDS011;28616;44.746;19.678;2023-07-29T11:03:38;6.82;;;2.05;;
42978;SDS011;28616;44.746;19.678;2023-07-29T11:06:04;4.65;;;2.00;;
42978;SDS011;28616;44.746;19.678;2023-07-29T11:08:30;10.55;;;3.78;;
42978;SDS011;28616;44.746;19.678;2023-07-29T11:11:00;3.00;;;1.88;;
42978;SDS011;28616;44.746;19.678;2023-07-29T11:13:30;6.05;;;2.08;;
42978;SDS011;28616;44.746;19.678;2023-07-29T11:15:56;3.28;;;1.77;;
42978;SDS011;28616;44.746;19.678;2023-07-29T11:18:27;5.88;;;1.92;;
42978;SDS011;28616;44.746;19.678;2023-07-29T11:20:54;3.22;;;1.85;;
42978;SDS011;28616;44.746;19.678;2023-07-29T11:23:21;5.10;;;2.35;;
42978;SDS011;28616;44.746;19.678;2023-07-29T11:25:53;5.00;;;2.33;;
42978;SDS011;28616;44.746;19.678;2023-07-29T11:28:19;3.47;;;1.80;;
42978;SDS011;28616;44.746;19.678;2023-07-29T11:30:47;5.40;;;2.15;;
42978;SDS011;28616;44.746;19.678;2023-07-29T11:33:13;4.28;;;2.05;;
42978;SDS011;28616;44.746;19.678;2023-07-29T11:35:40;3.53;;;2.00;;
42978;SDS011;28616;44.746;19.678;2023-07-29T11:38:06;6.55;;;2.13;;
42978;SDS011;28616;44.746;19.678;2023-07-29T11:40:32;5.45;;;2.20;;
42978;SDS011;28616;44.746;19.678;2023-07-29T11:42:58;11.00;;;2.58;;
42978;SDS011;28616;44.746;19.678;2023-07-29T11:45:25;6.88;;;2.13;;
42978;SDS011;28616;44.746;19.678;2023-07-29T11:47:52;3.92;;;1.90;;
42978;SDS011;28616;44.746;19.678;2023-07-29T11:50:18;5.55;;;2.38;;
42978;SDS011;28616;44.746;19.678;2023-07-29T11:52:45;4.05;;;2.10;;
42978;SDS011;28616;44.746;19.678;2023-07-29T11:55:11;3.95;;;1.88;;
42978;SDS011;28616;44.746;19.678;2023-07-29T11:57:39;3.22;;;1.85;;
42978;SDS011;28616;44.746;19.678;2023-07-29T12:00:06;9.07;;;2.00;;
42978;SDS011;28616;44.746;19.678;2023-07-29T12:02:42;5.68;;;2.03;;
42978;SDS011;28616;44.746;19.678;2023-07-29T12:05:11;4.63;;;2.58;;
42978;SDS011;28616;44.746;19.678;2023-07-29T12:07:38;4.55;;;2.30;;
42978;SDS011;28616;44.746;19.678;2023-07-29T12:10:04;4.13;;;2.22;;
42978;SDS011;28616;44.746;19.678;2023-07-29T12:12:31;7.30;;;2.55;;
42978;SDS011;28616;44.746;19.678;2023-07-29T12:14:57;7.28;;;2.30;;
42978;SDS011;28616;44.746;19.678;2023-07-29T12:17:23;4.13;;;2.30;;
42978;SDS011;28616;44.746;19.678;2023-07-29T12:19:50;3.80;;;2.05;;
42978;SDS011;28616;44.746;19.678;2023-07-29T12:22:19;7.47;;;2.03;;
42978;SDS011;28616;44.746;19.678;2023-07-29T12:24:45;4.93;;;2.13;;
42978;SDS011;28616;44.746;19.678;2023-07-29T12:27:12;3.63;;;2.20;;
42978;SDS011;28616;44.746;19.678;2023-07-29T12:29:42;3.15;;;2.00;;
42978;SDS011;28616;44.746;19.678;2023-07-29T12:32:09;3.40;;;2.28;;
42978;SDS011;28616;44.746;19.678;2023-07-29T12:34:36;5.70;;;2.20;;
42978;SDS011;28616;44.746;19.678;2023-07-29T12:37:04;5.22;;;2.20;;
42978;SDS011;28616;44.746;19.678;2023-07-29T12:39:31;4.07;;;2.00;;
42978;SDS011;28616;44.746;19.678;2023-07-29T12:41:58;4.55;;;2.28;;
42978;SDS011;28616;44.746;19.678;2023-07-29T12:44:29;5.10;;;2.35;;
42978;SDS011;28616;44.746;19.678;2023-07-29T12:46:56;5.25;;;2.30;;
42978;SDS011;28616;44.746;19.678;2023-07-29T12:49:22;7.03;;;2.50;;
42978;SDS011;28616;44.746;19.678;2023-07-29T12:51:48;7.32;;;2.60;;
42978;SDS011;28616;44.746;19.678;2023-07-29T12:54:14;6.93;;;2.17;;
42978;SDS011;28616;44.746;19.678;2023-07-29T12:56:40;4.13;;;2.30;;
42978;SDS011;28616;44.746;19.678;2023-07-29T12:59:06;6.25;;;2.30;;
42978;SDS011;28616;44.746;19.678;2023-07-29T13:01:32;8.02;;;2.15;;
42978;SDS011;28616;44.746;19.678;2023-07-29T13:03:59;5.03;;;2.10;;
42978;SDS011;28616;44.746;19.678;2023-07-29T13:06:25;4.35;;;2.35;;
42978;SDS011;28616;44.746;19.678;2023-07-29T13:08:51;3.72;;;2.05;;
42978;SDS011;28616;44.746;19.678;2023-07-29T13:11:17;7.65;;;2.35;;
42978;SDS011;28616;44.746;19.678;2023-07-29T13:13:43;5.07;;;2.47;;
42978;SDS011;28616;44.746;19.678;2023-07-29T13:16:10;3.67;;;2.13;;
42978;SDS011;28616;44.746;19.678;2023-07-29T13:18:39;3.13;;;2.03;;
42978;SDS011;28616;44.746;19.678;2023-07-29T13:21:05;6.05;;;2.22;;
42978;SDS011;28616;44.746;19.678;2023-07-29T13:23:32;3.67;;;2.00;;
42978;SDS011;28616;44.746;19.678;2023-07-29T13:25:58;6.30;;;1.90;;
42978;SDS011;28616;44.746;19.678;2023-07-29T13:28:24;4.50;;;2.22;;
42978;SDS011;28616;44.746;19.678;2023-07-29T13:30:50;5.38;;;2.00;;
42978;SDS011;28616;44.746;19.678;2023-07-29T13:33:16;3.83;;;2.00;;
42978;SDS011;28616;44.746;19.678;2023-07-29T13:35:42;6.93;;;1.90;;
42978;SDS011;28616;44.746;19.678;2023-07-29T13:38:08;4.38;;;2.20;;
42978;SDS011;28616;44.746;19.678;2023-07-29T13:40:36;3.90;;;1.98;;
42978;SDS011;28616;44.746;19.678;2023-07-29T13:43:03;4.88;;;2.05;;
42978;SDS011;28616;44.746;19.678;2023-07-29T13:45:29;3.33;;;1.73;;
42978;SDS011;28616;44.746;19.678;2023-07-29T13:47:56;3.55;;;1.95;;
42978;SDS011;28616;44.746;19.678;2023-07-29T13:50:22;3.85;;;1.98;;
42978;SDS011;28616;44.746;19.678;2023-07-29T13:52:48;3.53;;;2.17;;
42978;SDS011;28616;44.746;19.678;2023-07-29T13:55:14;4.07;;;2.08;;
42978;SDS011;28616;44.746;19.678;2023-07-29T13:57:40;6.75;;;2.40;;
42978;SDS011;28616;44.746;19.678;2023-07-29T14:00:07;4.45;;;1.70;;
42978;SDS011;28616;44.746;19.678;2023-07-29T14:02:33;4.20;;;1.85;;
42978;SDS011;28616;44.746;19.678;2023-07-29T14:04:59;5.30;;;2.35;;
42978;SDS011;28616;44.746;19.678;2023-07-29T14:07:25;4.20;;;1.92;;
42978;SDS011;28616;44.746;19.678;2023-07-29T14:09:51;8.75;;;2.10;;
42978;SDS011;28616;44.746;19.678;2023-07-29T14:12:17;3.35;;;1.90;;
42978;SDS011;28616;44.746;19.678;2023-07-29T14:14:43;3.08;;;2.08;;
42978;SDS011;28616;44.746;19.678;2023-07-29T14:17:10;3.35;;;2.28;;
42978;SDS011;28616;44.746;19.678;2023-07-29T14:19:36;4.65;;;1.83;;
42978;SDS011;28616;44.746;19.678;2023-07-29T14:22:02;6.32;;;2.47;;
42978;SDS011;28616;44.746;19.678;2023-07-29T14:24:29;8.35;;;2.00;;
42978;SDS011;28616;44.746;19.678;2023-07-29T14:26:55;5.93;;;2.10;;
42978;SDS011;28616;44.746;19.678;2023-07-29T14:29:21;7.72;;;2.47;;
42978;SDS011;28616;44.746;19.678;2023-07-29T14:31:47;8.13;;;2.38;;
42978;SDS011;28616;44.746;19.678;2023-07-29T14:34:13;3.60;;;2.22;;
42978;SDS011;28616;44.746;19.678;2023-07-29T14:36:39;3.97;;;2.13;;
42978;SDS011;28616;44.746;19.678;2023-07-29T14:39:06;4.95;;;2.30;;
42978;SDS011;28616;44.746;19.678;2023-07-29T14:41:32;8.60;;;2.20;;
42978;SDS011;28616;44.746;19.678;2023-07-29T14:43:59;4.57;;;2.22;;